createdAt,value
2019-05-01T00:02:44.583Z,10.28
2019-05-01T00:05:19.041Z,10.29
2019-05-01T00:07:46.143Z,10.37
2019-05-01T00:10:17.961Z,10.29
2019-05-01T00:12:45.084Z,10.22
2019-05-01T00:15:12.649Z,10.00
2019-05-01T00:17:39.713Z,10.00
2019-05-01T00:20:07.277Z,10.14
2019-05-01T00:22:34.344Z,10.10
2019-05-01T00:25:01.740Z,10.16
2019-05-01T00:27:28.864Z,10.14
2019-05-01T00:29:56.012Z,10.26
2019-05-01T00:32:23.042Z,10.30
2019-05-01T00:34:50.092Z,10.36
2019-05-01T00:37:17.160Z,10.43
2019-05-01T00:39:44.190Z,10.43
2019-05-01T00:42:11.244Z,10.39
2019-05-01T00:44:40.321Z,10.46
2019-05-01T00:47:07.381Z,10.46
2019-05-01T00:49:34.467Z,10.55
2019-05-01T00:52:01.550Z,10.52
2019-05-01T00:54:29.991Z,10.52
2019-05-01T00:57:22.553Z,10.47
2019-05-01T00:59:59.822Z,10.49
2019-05-01T01:02:38.896Z,10.31
2019-05-01T01:05:10.678Z,10.31
2019-05-01T01:07:37.831Z,10.21
2019-05-01T01:10:05.896Z,10.18
2019-05-01T01:12:32.973Z,10.22
2019-05-01T01:15:03.904Z,10.18
2019-05-01T01:17:30.987Z,10.24
2019-05-01T01:19:58.049Z,10.26
2019-05-01T01:22:25.105Z,10.20
2019-05-01T01:24:52.906Z,10.16
2019-05-01T01:27:23.391Z,10.17
2019-05-01T01:29:50.485Z,10.21
2019-05-01T01:32:25.462Z,10.12
2019-05-01T01:34:52.539Z,10.22
2019-05-01T01:37:19.658Z,10.30
2019-05-01T01:39:47.547Z,10.34
2019-05-01T01:42:14.796Z,10.17
2019-05-01T01:44:51.509Z,10.27
2019-05-01T01:47:18.646Z,10.09
2019-05-01T01:49:45.684Z,10.12
2019-05-01T01:52:14.102Z,10.19
2019-05-01T01:54:41.185Z,10.13
2019-05-01T01:57:08.235Z,10.20
2019-05-01T01:59:35.481Z,10.21
2019-05-01T02:02:22.211Z,10.09
2019-05-01T02:05:10.521Z,10.07
2019-05-01T02:07:37.829Z,10.07
2019-05-01T02:10:06.808Z,10.08
2019-05-01T02:12:35.350Z,10.12
2019-05-01T02:15:02.438Z,10.14
2019-05-01T02:17:29.510Z,10.22
2019-05-01T02:19:56.587Z,10.09
2019-05-01T02:22:23.630Z,10.07
2019-05-01T02:24:50.680Z,10.03
2019-05-01T02:27:23.817Z,10.02
2019-05-01T02:29:54.243Z,10.17
2019-05-01T02:32:23.674Z,10.22
2019-05-01T02:34:52.026Z,10.25
2019-05-01T02:37:19.886Z,10.31
2019-05-01T02:39:48.231Z,10.25
2019-05-01T02:42:17.295Z,10.25
2019-05-01T02:44:48.311Z,10.21
2019-05-01T02:47:22.348Z,10.21
2019-05-01T02:49:57.246Z,10.11
2019-05-01T02:52:28.383Z,10.14
2019-05-01T02:55:00.359Z,10.19
2019-05-01T02:57:28.354Z,10.22
2019-05-01T02:59:57.103Z,10.27
2019-05-01T03:02:25.772Z,10.09
2019-05-01T03:04:54.515Z,10.18
2019-05-01T03:07:23.484Z,10.28
2019-05-01T03:09:51.215Z,10.30
2019-05-01T03:12:21.060Z,10.18
2019-05-01T03:14:50.484Z,10.15
2019-05-01T03:17:40.919Z,10.11
2019-05-01T03:20:39.961Z,10.16
2019-05-01T03:23:40.075Z,10.07
2019-05-01T03:26:07.195Z,10.01
2019-05-01T03:28:34.201Z,9.96
2019-05-01T03:31:01.583Z,9.92
2019-05-01T03:33:29.217Z,9.97
2019-05-01T03:35:56.237Z,9.91
2019-05-01T03:38:23.674Z,9.81
2019-05-01T03:40:51.179Z,9.85
2019-05-01T03:43:18.901Z,9.92
2019-05-01T03:45:45.981Z,9.99
2019-05-01T03:48:13.127Z,10.01
2019-05-01T03:50:40.442Z,9.96
2019-05-01T03:53:07.907Z,9.95
2019-05-01T03:55:35.741Z,9.98
2019-05-01T03:58:03.456Z,9.91
2019-05-01T04:00:56.028Z,9.91
2019-05-01T04:03:27.739Z,9.90
2019-05-01T04:05:55.260Z,10.00
2019-05-01T04:08:23.202Z,9.91
2019-05-01T04:10:50.329Z,9.98
2019-05-01T04:13:17.590Z,9.97
2019-05-01T04:15:44.983Z,10.03
2019-05-01T04:18:12.246Z,10.11
2019-05-01T04:20:39.680Z,10.10
2019-05-01T04:23:06.956Z,10.04
2019-05-01T04:25:34.527Z,10.11
2019-05-01T04:28:21.596Z,10.19
2019-05-01T04:31:01.713Z,10.23
2019-05-01T04:33:30.037Z,10.13
2019-05-01T04:36:03.124Z,10.14
2019-05-01T04:38:30.276Z,10.17
2019-05-01T04:40:57.359Z,10.15
2019-05-01T04:43:24.857Z,10.07
2019-05-01T04:45:52.014Z,10.00
2019-05-01T04:48:20.061Z,10.08
2019-05-01T04:50:47.592Z,10.14
2019-05-01T04:53:14.644Z,10.12
2019-05-01T04:55:41.905Z,10.15
2019-05-01T04:58:09.226Z,10.11
2019-05-01T05:00:36.613Z,10.13
2019-05-01T05:03:08.062Z,10.18
2019-05-01T05:05:36.210Z,10.20
2019-05-01T05:08:03.341Z,10.25
2019-05-01T05:10:30.839Z,10.30
2019-05-01T05:13:16.043Z,10.30
2019-05-01T05:16:00.965Z,10.19
2019-05-01T05:18:28.401Z,10.10
2019-05-01T05:20:56.652Z,10.12
2019-05-01T05:23:23.694Z,10.19
2019-05-01T05:25:51.316Z,10.12
2019-05-01T05:28:22.374Z,10.05
2019-05-01T05:30:50.935Z,10.12
2019-05-01T05:33:19.056Z,10.08
2019-05-01T05:35:48.813Z,10.09
2019-05-01T05:38:26.225Z,10.05
2019-05-01T05:40:53.764Z,9.93
2019-05-01T05:43:21.339Z,10.01
2019-05-01T05:45:48.591Z,10.18
2019-05-01T05:48:15.945Z,10.18
2019-05-01T05:51:00.544Z,10.28
2019-05-01T05:53:31.953Z,10.24
2019-05-01T05:56:02.517Z,10.23
2019-05-01T05:58:37.023Z,10.28
2019-05-01T06:01:25.058Z,10.24
2019-05-01T06:04:13.913Z,10.16
2019-05-01T06:06:52.710Z,10.25
2019-05-01T06:09:23.601Z,10.23
2019-05-01T06:12:10.118Z,10.32
2019-05-01T06:15:06.480Z,10.30
2019-05-01T06:17:59.159Z,10.32
2019-05-01T06:20:40.144Z,10.17
2019-05-01T06:23:20.731Z,10.32
2019-05-01T06:25:54.335Z,10.32
2019-05-01T06:28:24.965Z,10.34
2019-05-01T06:30:49.330Z,10.22
2019-05-01T06:33:16.395Z,10.30
2019-05-01T06:35:43.974Z,10.38
2019-05-01T06:38:14.892Z,10.38
2019-05-01T06:40:46.049Z,10.23
2019-05-01T06:43:34.752Z,10.40
2019-05-01T06:46:27.300Z,10.49
2019-05-01T06:48:57.141Z,10.45
2019-05-01T06:51:41.086Z,10.44
2019-05-01T06:54:11.328Z,10.33
2019-05-01T06:56:41.473Z,10.40
2019-05-01T06:59:09.362Z,10.36
2019-05-01T07:01:36.716Z,10.38
2019-05-01T07:04:06.475Z,10.39
2019-05-01T07:06:33.831Z,10.59
2019-05-01T07:09:01.067Z,10.59
2019-05-01T07:11:28.302Z,10.65
2019-05-01T07:13:56.076Z,10.65
2019-05-01T07:16:23.135Z,10.63
2019-05-01T07:18:52.813Z,10.53
2019-05-01T07:21:22.813Z,10.58
2019-05-01T07:23:52.239Z,10.54
2019-05-01T07:26:18.341Z,10.52
2019-05-01T07:28:47.327Z,10.63
2019-05-01T07:31:20.771Z,10.68
2019-05-01T07:33:51.294Z,10.62
2019-05-01T07:36:16.966Z,10.57
2019-05-01T07:38:45.018Z,10.64
2019-05-01T07:41:12.472Z,10.51
2019-05-01T07:43:47.724Z,10.55
2019-05-01T07:47:04.671Z,10.69
2019-05-01T07:50:08.566Z,10.69
2019-05-01T07:52:36.241Z,10.76
2019-05-01T07:55:04.642Z,10.66
2019-05-01T07:57:34.311Z,10.70
2019-05-01T08:00:03.718Z,10.64
2019-05-01T08:02:31.175Z,10.64
2019-05-01T08:04:59.222Z,10.63
2019-05-01T08:07:52.199Z,10.67
2019-05-01T08:10:02.295Z,10.66
2019-05-01T08:12:38.250Z,10.65
2019-05-01T08:15:05.564Z,10.70
2019-05-01T08:17:35.953Z,10.75
2019-05-01T08:20:15.044Z,10.76
2019-05-01T08:22:43.256Z,10.80
2019-05-01T08:25:33.093Z,10.87
2019-05-01T08:28:20.578Z,10.78
2019-05-01T08:30:59.443Z,10.83
2019-05-01T08:34:02.753Z,10.91
2019-05-01T08:36:29.998Z,11.00
2019-05-01T08:39:09.255Z,11.06
2019-05-01T08:41:44.989Z,10.95
2019-05-01T08:44:35.064Z,11.07
2019-05-01T08:47:25.883Z,11.14
2019-05-01T08:50:19.885Z,11.18
2019-05-01T08:52:47.491Z,11.19
2019-05-01T08:55:20.377Z,11.18
2019-05-01T08:57:47.606Z,11.20
2019-05-01T09:00:16.161Z,11.27
2019-05-01T09:08:12.299Z,11.29
2019-05-01T09:10:39.351Z,11.24
2019-05-01T09:13:06.454Z,11.31
2019-05-01T09:15:33.510Z,11.39
2019-05-01T09:18:00.625Z,11.26
2019-05-01T09:20:31.943Z,11.36
2019-05-01T09:22:59.097Z,11.45
2019-05-01T09:25:35.385Z,11.48
2019-05-01T09:28:10.944Z,11.51
2019-05-01T09:30:42.118Z,11.55
2019-05-01T09:33:16.125Z,11.28
2019-05-01T09:35:45.228Z,11.49
2019-05-01T09:40:59.234Z,11.64
2019-05-01T09:43:26.358Z,11.54
2019-05-01T09:45:56.600Z,11.56
2019-05-01T09:48:23.661Z,11.52
2019-05-01T09:51:00.890Z,11.62
2019-05-01T09:53:46.251Z,11.55
2019-05-01T09:56:25.537Z,11.56
2019-05-01T09:58:52.598Z,11.56
2019-05-01T10:01:24.613Z,11.74
2019-05-01T10:03:49.395Z,11.64
2019-05-01T10:06:18.851Z,11.77
2019-05-01T10:08:46.018Z,11.86
2019-05-01T10:11:13.036Z,11.73
2019-05-01T10:13:42.879Z,11.75
2019-05-01T10:16:12.477Z,11.71
2019-05-01T10:18:39.560Z,11.73
2019-05-01T10:21:06.629Z,11.73
2019-05-01T10:23:33.710Z,11.75
2019-05-01T10:26:02.695Z,11.83
2019-05-01T10:28:45.029Z,11.91
2019-05-01T10:31:17.929Z,11.58
2019-05-01T10:33:46.196Z,11.58
2019-05-01T10:36:32.956Z,11.74
2019-05-01T10:39:00.123Z,11.74
2019-05-01T10:41:27.298Z,11.78
2019-05-01T10:43:54.333Z,11.78
2019-05-01T10:46:21.438Z,11.72
2019-05-01T10:48:48.767Z,11.69
2019-05-01T10:51:27.987Z,11.70
2019-05-01T10:53:55.039Z,11.80
2019-05-01T10:56:22.384Z,11.80
2019-05-01T10:58:49.449Z,11.93
2019-05-01T11:01:22.562Z,11.97
2019-05-01T11:03:52.177Z,11.92
2019-05-01T11:06:20.135Z,11.98
2019-05-01T11:08:47.164Z,11.98
2019-05-01T11:11:14.276Z,12.06
2019-05-01T11:13:41.319Z,12.06
2019-05-01T11:16:22.611Z,12.17
2019-05-01T11:18:49.699Z,12.08
2019-05-01T11:21:16.839Z,12.15
2019-05-01T11:23:43.963Z,12.11
2019-05-01T11:26:11.003Z,12.07
2019-05-01T11:28:38.047Z,12.26
2019-05-01T11:31:06.498Z,12.26
2019-05-01T11:33:58.771Z,12.15
2019-05-01T11:36:44.795Z,11.97
2019-05-01T11:39:26.362Z,12.02
2019-05-01T11:41:58.087Z,12.23
2019-05-01T11:44:32.046Z,12.06
2019-05-01T11:46:59.270Z,12.18
2019-05-01T11:49:26.332Z,12.23
2019-05-01T11:51:53.371Z,12.21
2019-05-01T11:54:20.435Z,12.19
2019-05-01T11:56:47.506Z,12.19
2019-05-01T11:59:14.600Z,12.18
2019-05-01T12:01:41.648Z,12.19
2019-05-01T12:04:08.710Z,12.25
2019-05-01T12:06:35.774Z,12.33
2019-05-01T12:09:05.133Z,12.40
2019-05-01T12:11:34.168Z,12.40
2019-05-01T12:14:01.281Z,12.53
2019-05-01T12:16:46.815Z,12.56
2019-05-01T12:19:14.083Z,12.53
2019-05-01T12:21:41.103Z,12.49
2019-05-01T12:24:08.144Z,12.49
2019-05-01T12:26:35.822Z,12.67
2019-05-01T12:29:07.183Z,12.67
2019-05-01T12:31:34.236Z,12.59
2019-05-01T12:34:01.294Z,12.59
2019-05-01T12:36:36.117Z,12.67
2019-05-01T12:38:57.452Z,12.57
2019-05-01T12:41:31.270Z,12.50
2019-05-01T12:43:58.310Z,12.64
2019-05-01T12:46:49.548Z,12.75
2019-05-01T12:49:16.621Z,12.71
2019-05-01T12:51:45.610Z,12.60
2019-05-01T12:54:23.347Z,12.73
2019-05-01T12:56:53.948Z,12.63
2019-05-01T12:59:21.267Z,12.56
2019-05-01T13:01:48.351Z,12.68
2019-05-01T13:04:16.783Z,12.68
2019-05-01T13:06:49.569Z,12.70
2019-05-01T13:09:12.990Z,12.74
2019-05-01T13:11:40.073Z,12.81
2019-05-01T13:14:07.286Z,12.67
2019-05-01T13:16:34.364Z,12.75
2019-05-01T13:19:01.421Z,12.66
2019-05-01T13:21:30.721Z,12.71
2019-05-01T13:23:57.763Z,12.71
2019-05-01T13:26:43.437Z,12.85
2019-05-01T13:29:24.581Z,12.63
2019-05-01T13:32:09.962Z,12.74
2019-05-01T13:34:37.066Z,12.74
2019-05-01T13:37:04.365Z,12.63
2019-05-01T13:39:31.527Z,12.69
2019-05-01T13:41:58.574Z,12.76
2019-05-01T13:44:25.608Z,12.76
2019-05-01T13:46:52.701Z,12.68
2019-05-01T13:49:19.736Z,12.68
2019-05-01T13:51:46.808Z,12.65
2019-05-01T13:54:13.900Z,12.78
2019-05-01T13:56:40.949Z,12.72
2019-05-01T13:59:11.542Z,12.79
2019-05-01T14:01:38.606Z,12.86
2019-05-01T14:04:05.843Z,12.74
2019-05-01T14:06:32.985Z,12.81
2019-05-01T14:09:00.390Z,12.72
2019-05-01T14:11:27.426Z,12.72
2019-05-01T14:13:54.484Z,12.83
2019-05-01T14:16:21.583Z,12.82
2019-05-01T14:18:48.650Z,12.71
2019-05-01T14:21:32.951Z,12.81
2019-05-01T14:24:29.058Z,12.65
2019-05-01T14:26:56.513Z,12.69
2019-05-01T14:29:23.571Z,12.85
2019-05-01T14:31:52.467Z,12.85
2019-05-01T14:34:19.577Z,12.90
2019-05-01T14:36:46.839Z,12.73
2019-05-01T14:39:14.279Z,12.73
2019-05-01T15:30:55.869Z,13.40
2019-05-01T15:33:24.854Z,13.19
2019-05-01T15:35:51.838Z,12.87
2019-05-01T15:38:18.884Z,12.73
2019-05-01T15:40:57.503Z,12.72
2019-05-01T15:43:32.580Z,12.64
2019-05-01T15:46:02.369Z,12.64
2019-05-01T15:48:29.351Z,12.48
2019-05-01T15:51:02.205Z,12.52
2019-05-01T15:53:31.470Z,12.65
2019-05-01T15:55:58.427Z,12.61
2019-05-01T15:58:31.821Z,12.46
2019-05-01T16:00:58.814Z,12.55
2019-05-01T16:03:25.766Z,12.54
2019-05-01T16:05:52.893Z,12.43
2019-05-01T16:08:19.872Z,12.43
2019-05-01T16:10:55.437Z,12.34
2019-05-01T16:13:22.445Z,12.39
2019-05-01T16:15:51.749Z,12.46
2019-05-01T16:18:18.747Z,12.31
2019-05-01T16:20:49.815Z,12.23
2019-05-01T16:23:16.787Z,12.23
2019-05-01T16:25:48.764Z,12.25
2019-05-01T16:28:20.812Z,12.14
2019-05-01T16:30:50.211Z,12.11
2019-05-01T16:33:17.262Z,12.19
2019-05-01T16:35:44.297Z,12.19
2019-05-01T16:38:23.581Z,11.89
2019-05-01T16:41:01.056Z,11.89
2019-05-01T16:43:30.338Z,12.11
2019-05-01T16:45:59.791Z,12.21
2019-05-01T16:48:26.722Z,12.21
2019-05-01T16:50:57.309Z,12.00
2019-05-01T16:53:25.573Z,12.04
2019-05-01T16:55:52.593Z,12.11
2019-05-01T16:58:22.092Z,12.11
2019-05-01T17:00:58.903Z,11.99
2019-05-01T17:03:34.111Z,11.72
2019-05-01T17:06:20.893Z,11.71
2019-05-01T17:08:51.642Z,11.71
2019-05-01T17:11:21.280Z,11.66
2019-05-01T17:13:48.266Z,11.74
2019-05-01T17:16:15.313Z,11.66
2019-05-01T17:18:42.291Z,11.69
2019-05-01T17:21:09.281Z,11.72
2019-05-01T17:23:36.227Z,11.77
2019-05-01T17:26:03.225Z,11.77
2019-05-01T17:28:32.679Z,11.70
2019-05-01T17:31:02.011Z,11.70
2019-05-01T17:33:34.382Z,11.70
2019-05-01T17:36:01.346Z,11.70
2019-05-01T17:38:31.385Z,11.70
2019-05-01T17:41:00.185Z,11.74
2019-05-01T17:43:27.193Z,11.74
2019-05-01T17:45:54.144Z,11.65
2019-05-01T17:48:28.864Z,11.59
2019-05-01T17:50:55.060Z,11.62
2019-05-01T17:53:22.523Z,11.52
2019-05-01T17:55:49.532Z,11.52
2019-05-01T17:58:16.547Z,11.49
2019-05-01T18:01:06.260Z,11.51
2019-05-01T18:03:44.591Z,11.53
2019-05-01T18:06:17.210Z,11.49
2019-05-01T18:08:44.155Z,11.55
2019-05-01T18:11:14.170Z,11.57
2019-05-01T18:13:43.815Z,11.67
2019-05-01T18:16:12.432Z,11.68
2019-05-01T18:18:40.542Z,11.68
2019-05-01T18:21:09.609Z,11.65
2019-05-01T18:24:23.064Z,11.56
2019-05-01T18:27:22.615Z,11.57
2019-05-01T18:29:52.058Z,11.45
2019-05-01T18:32:36.427Z,11.41
2019-05-01T18:35:09.003Z,11.36
2019-05-01T18:37:55.106Z,11.24
2019-05-01T18:40:34.135Z,11.31
2019-05-01T18:43:05.223Z,11.20
2019-05-01T18:45:57.261Z,11.24
2019-05-01T18:48:27.682Z,11.25
2019-05-01T18:50:57.011Z,11.21
2019-05-01T18:53:32.218Z,11.21
2019-05-01T18:56:01.347Z,11.34
2019-05-01T18:58:28.073Z,11.41
2019-05-01T19:00:55.658Z,11.34
2019-05-01T19:03:22.999Z,11.29
2019-05-01T19:05:49.983Z,11.28
2019-05-01T19:08:17.121Z,11.23
2019-05-01T19:10:44.563Z,11.23
2019-05-01T19:13:11.536Z,11.25
2019-05-01T19:15:39.941Z,11.31
2019-05-01T19:18:11.644Z,11.31
2019-05-01T19:20:38.568Z,11.23
2019-05-01T19:23:08.238Z,11.21
2019-05-01T19:25:39.520Z,11.11
2019-05-01T19:28:08.400Z,11.23
2019-05-01T19:30:35.729Z,11.23
2019-05-01T19:33:04.284Z,11.24
2019-05-01T19:35:34.275Z,11.25
2019-05-01T19:38:02.963Z,11.36
2019-05-01T19:40:32.590Z,11.36
2019-05-01T19:43:02.139Z,11.41
2019-05-01T19:45:29.222Z,11.40
2019-05-01T19:47:59.816Z,11.28
2019-05-01T19:50:26.776Z,11.21
2019-05-01T19:52:55.402Z,11.20
2019-05-01T19:55:24.008Z,11.33
2019-05-01T19:57:52.760Z,11.25
2019-05-01T20:00:49.518Z,11.22
2019-05-01T20:03:20.451Z,11.07
2019-05-01T20:05:49.686Z,11.16
2019-05-01T20:08:16.680Z,11.17
2019-05-01T20:10:43.641Z,11.19
2019-05-01T20:13:12.318Z,11.02
2019-05-01T20:15:41.863Z,11.08
2019-05-01T20:18:09.212Z,11.09
2019-05-01T20:20:36.174Z,11.11
2019-05-01T20:23:03.178Z,11.07
2019-05-01T20:25:32.404Z,11.16
2019-05-01T20:27:59.359Z,11.17
2019-05-01T20:30:26.362Z,11.01
2019-05-01T20:32:53.380Z,11.01
2019-05-01T20:35:23.960Z,11.11
2019-05-01T20:37:49.237Z,11.18
2019-05-01T20:40:19.628Z,11.15
2019-05-01T20:42:49.599Z,11.09
2019-05-01T20:45:18.330Z,11.23
2019-05-01T20:47:48.261Z,11.16
2019-05-01T20:50:15.720Z,11.25
2019-05-01T20:52:43.969Z,11.20
2019-05-01T20:55:10.984Z,11.20
2019-05-01T20:57:40.076Z,11.15
2019-05-01T21:00:11.171Z,11.19
2019-05-01T21:02:38.910Z,11.31
2019-05-01T21:05:26.146Z,11.33
2019-05-01T21:08:07.113Z,11.18
2019-05-01T21:10:50.519Z,11.18
2019-05-01T21:13:17.797Z,11.19
2019-05-01T21:15:47.413Z,11.23
2019-05-01T21:18:20.990Z,11.31
2019-05-01T21:20:48.144Z,11.29
2019-05-01T21:23:19.388Z,11.22
2019-05-01T21:25:46.372Z,11.16
2019-05-01T21:28:14.185Z,11.16
2019-05-01T21:30:47.446Z,11.21
2019-05-01T21:33:14.643Z,11.20
2019-05-01T21:35:41.586Z,11.20
2019-05-01T21:38:10.007Z,11.23
2019-05-01T21:40:40.376Z,11.23
2019-05-01T21:43:08.373Z,11.18
2019-05-01T21:45:40.675Z,11.19
2019-05-01T21:48:09.826Z,11.13
2019-05-01T21:50:39.116Z,11.18
2019-05-01T21:53:07.118Z,11.29
2019-05-01T21:55:40.190Z,11.27
2019-05-01T21:58:07.141Z,11.29
2019-05-01T22:00:39.858Z,11.20
2019-05-01T22:03:07.050Z,11.20
2019-05-01T22:05:34.873Z,11.17
2019-05-01T22:08:03.899Z,11.21
2019-05-01T22:10:51.368Z,11.19
2019-05-01T22:13:08.381Z,11.24
2019-05-01T22:15:42.103Z,11.30
2019-05-01T22:18:17.436Z,11.29
2019-05-01T22:20:49.096Z,11.23
2019-05-01T22:23:21.906Z,11.20
2019-05-01T22:25:49.383Z,11.32
2019-05-01T22:28:27.915Z,11.25
2019-05-01T22:31:23.440Z,11.22
2019-05-01T22:33:54.278Z,11.28
2019-05-01T22:36:21.231Z,11.19
2019-05-01T22:38:48.128Z,11.10
2019-05-01T22:41:17.164Z,11.11
2019-05-01T22:43:46.524Z,11.15
2019-05-01T22:46:25.079Z,11.13
2019-05-01T22:48:53.137Z,11.03
2019-05-01T22:51:22.961Z,11.17
2019-05-01T22:53:55.951Z,11.17
2019-05-01T22:56:30.967Z,11.18
2019-05-01T22:58:57.944Z,11.17
2019-05-01T23:01:26.967Z,11.12
2019-05-01T23:03:58.702Z,11.14
2019-05-01T23:06:31.985Z,11.16
2019-05-01T23:08:58.953Z,11.12
2019-05-01T23:11:28.024Z,11.17
2019-05-01T23:13:57.887Z,11.21
2019-05-01T23:16:31.701Z,11.19
2019-05-01T23:18:58.665Z,11.18
2019-05-01T23:21:29.163Z,11.18
2019-05-01T23:24:01.972Z,11.18
2019-05-01T23:26:31.241Z,11.23
2019-05-01T23:28:58.218Z,11.20
2019-05-01T23:31:27.763Z,11.28
2019-05-01T23:34:03.350Z,11.18
2019-05-01T23:36:32.664Z,11.14
2019-05-01T23:38:59.609Z,11.18
2019-05-01T23:41:44.724Z,11.17
2019-05-01T23:43:58.270Z,11.18
2019-05-01T23:46:30.718Z,11.03
2019-05-01T23:48:57.719Z,11.03
2019-05-01T23:51:29.899Z,11.09
2019-05-01T23:53:57.114Z,11.12
2019-05-01T23:56:24.120Z,11.08
2019-05-01T23:58:51.104Z,11.08
